sensor_id;sensor_type;location;lat;lon;timestamp;pressure;altitude;pressure_sealevel;temperature;humidity
7200;BME280;3641;49.082;8.200;2023-02-13T00:02:02;102376.69;;;4.58;90.19
7200;BME280;3641;49.082;8.200;2023-02-13T00:04:28;102375.47;;;4.63;89.59
7200;BME280;3641;49.082;8.200;2023-02-13T00:06:54;102380.28;;;4.44;91.10
7200;BME280;3641;49.082;8.200;2023-02-13T00:09:22;102381.72;;;4.35;92.28
7200;BME280;3641;49.082;8.200;2023-02-13T00:11:49;102379.13;;;4.48;91.03
7200;BME280;3641;49.082;8.200;2023-02-13T00:14:15;102368.97;;;4.37;91.69
7200;BME280;3641;49.082;8.200;2023-02-13T00:16:42;102372.66;;;4.50;89.01
7200;BME280;3641;49.082;8.200;2023-02-13T00:19:08;102378.44;;;4.44;91.08
7200;BME280;3641;49.082;8.200;2023-02-13T00:21:35;102375.38;;;4.50;88.69
7200;BME280;3641;49.082;8.200;2023-02-13T00:24:01;102372.84;;;4.47;88.25
7200;BME280;3641;49.082;8.200;2023-02-13T00:26:29;102369.28;;;4.61;86.13
7200;BME280;3641;49.082;8.200;2023-02-13T00:28:56;102368.78;;;4.54;88.52
7200;BME280;3641;49.082;8.200;2023-02-13T00:31:22;102370.16;;;4.47;88.78
7200;BME280;3641;49.082;8.200;2023-02-13T00:33:49;102367.81;;;4.55;86.41
7200;BME280;3641;49.082;8.200;2023-02-13T00:36:17;102366.16;;;4.53;87.21
7200;BME280;3641;49.082;8.200;2023-02-13T00:38:44;102366.47;;;4.48;87.74
7200;BME280;3641;49.082;8.200;2023-02-13T00:41:11;102367.91;;;4.40;88.21
7200;BME280;3641;49.082;8.200;2023-02-13T00:43:39;102359.78;;;4.40;88.20
7200;BME280;3641;49.082;8.200;2023-02-13T00:46:06;102359.41;;;4.31;88.50
7200;BME280;3641;49.082;8.200;2023-02-13T00:48:33;102355.94;;;4.29;90.21
7200;BME280;3641;49.082;8.200;2023-02-13T00:51:00;102368.63;;;4.13;92.30
7200;BME280;3641;49.082;8.200;2023-02-13T00:53:26;102366.72;;;4.15;91.10
7200;BME280;3641;49.082;8.200;2023-02-13T00:55:53;102364.91;;;4.44;87.46
7200;BME280;3641;49.082;8.200;2023-02-13T00:58:20;102373.88;;;4.30;88.99
7200;BME280;3641;49.082;8.200;2023-02-13T01:00:49;102372.97;;;4.01;92.42
7200;BME280;3641;49.082;8.200;2023-02-13T01:03:17;102368.25;;;4.19;89.71
7200;BME280;3641;49.082;8.200;2023-02-13T01:05:44;102371.31;;;3.98;92.26
7200;BME280;3641;49.082;8.200;2023-02-13T01:08:12;102365.16;;;4.11;90.47
7200;BME280;3641;49.082;8.200;2023-02-13T01:10:40;102376.63;;;4.00;91.73
7200;BME280;3641;49.082;8.200;2023-02-13T01:13:08;102376.75;;;4.13;89.42
7200;BME280;3641;49.082;8.200;2023-02-13T01:15:34;102370.97;;;4.19;87.89
7200;BME280;3641;49.082;8.200;2023-02-13T01:18:02;102368.31;;;4.03;90.56
7200;BME280;3641;49.082;8.200;2023-02-13T01:20:29;102365.19;;;4.25;86.92
7200;BME280;3641;49.082;8.200;2023-02-13T01:22:56;102364.16;;;4.28;86.30
7200;BME280;3641;49.082;8.200;2023-02-13T01:25:23;102366.63;;;4.16;88.15
7200;BME280;3641;49.082;8.200;2023-02-13T01:27:51;102360.34;;;4.16;86.92
7200;BME280;3641;49.082;8.200;2023-02-13T01:30:18;102359.38;;;4.17;87.35
7200;BME280;3641;49.082;8.200;2023-02-13T01:32:45;102362.06;;;4.03;90.31
7200;BME280;3641;49.082;8.200;2023-02-13T01:35:14;102366.16;;;3.94;90.72
7200;BME280;3641;49.082;8.200;2023-02-13T01:37:41;102362.84;;;3.74;93.15
7200;BME280;3641;49.082;8.200;2023-02-13T01:40:11;102361.84;;;3.91;90.79
7200;BME280;3641;49.082;8.200;2023-02-13T01:42:38;102359.72;;;3.96;88.52
7200;BME280;3641;49.082;8.200;2023-02-13T01:45:12;102365.31;;;3.93;89.69
7200;BME280;3641;49.082;8.200;2023-02-13T01:47:45;102356.94;;;3.98;88.20
7200;BME280;3641;49.082;8.200;2023-02-13T01:50:18;102353.19;;;4.00;88.40
7200;BME280;3641;49.082;8.200;2023-02-13T01:52:48;102345.84;;;4.03;87.94
7200;BME280;3641;49.082;8.200;2023-02-13T01:55:15;102351.94;;;4.06;87.00
7200;BME280;3641;49.082;8.200;2023-02-13T01:57:45;102340.72;;;3.68;92.29
7200;BME280;3641;49.082;8.200;2023-02-13T02:00:15;102343.56;;;3.80;90.47
7200;BME280;3641;49.082;8.200;2023-02-13T02:02:45;102334.72;;;3.93;88.43
7200;BME280;3641;49.082;8.200;2023-02-13T02:05:17;102341.84;;;3.94;88.59
7200;BME280;3641;49.082;8.200;2023-02-13T02:07:45;102342.56;;;3.97;87.39
7200;BME280;3641;49.082;8.200;2023-02-13T02:10:16;102350.06;;;3.92;87.77
7200;BME280;3641;49.082;8.200;2023-02-13T02:12:46;102358.88;;;3.96;87.34
7200;BME280;3641;49.082;8.200;2023-02-13T02:15:15;102357.06;;;3.80;90.11
7200;BME280;3641;49.082;8.200;2023-02-13T02:17:42;102354.59;;;3.92;87.54
7200;BME280;3641;49.082;8.200;2023-02-13T02:20:38;102356.72;;;3.87;88.27
7200;BME280;3641;49.082;8.200;2023-02-13T02:23:33;102360.00;;;3.92;86.81
7200;BME280;3641;49.082;8.200;2023-02-13T02:26:44;102365.94;;;3.82;88.53
7200;BME280;3641;49.082;8.200;2023-02-13T02:29:39;102352.25;;;3.86;87.58
7200;BME280;3641;49.082;8.200;2023-02-13T02:32:30;102345.31;;;3.81;88.69
7200;BME280;3641;49.082;8.200;2023-02-13T02:35:07;102346.63;;;3.74;89.35
7200;BME280;3641;49.082;8.200;2023-02-13T02:37:51;102350.38;;;3.72;90.59
7200;BME280;3641;49.082;8.200;2023-02-13T02:40:28;102344.06;;;3.87;86.42
7200;BME280;3641;49.082;8.200;2023-02-13T02:43:10;102339.81;;;3.83;87.65
7200;BME280;3641;49.082;8.200;2023-02-13T02:45:45;102336.22;;;3.82;86.70
7200;BME280;3641;49.082;8.200;2023-02-13T02:48:22;102341.63;;;3.52;91.89
7200;BME280;3641;49.082;8.200;2023-02-13T02:51:18;102331.59;;;3.70;89.29
7200;BME280;3641;49.082;8.200;2023-02-13T02:53:52;102341.72;;;3.81;87.65
7200;BME280;3641;49.082;8.200;2023-02-13T02:56:26;102338.34;;;3.77;88.50
7200;BME280;3641;49.082;8.200;2023-02-13T02:58:58;102341.81;;;3.79;87.28
7200;BME280;3641;49.082;8.200;2023-02-13T03:01:46;102338.34;;;3.77;86.98
7200;BME280;3641;49.082;8.200;2023-02-13T03:04:36;102347.94;;;3.83;86.89
7200;BME280;3641;49.082;8.200;2023-02-13T03:07:22;102343.06;;;3.74;88.36
7200;BME280;3641;49.082;8.200;2023-02-13T03:09:50;102346.81;;;3.71;88.73
7200;BME280;3641;49.082;8.200;2023-02-13T03:12:37;102347.09;;;3.67;90.17
7200;BME280;3641;49.082;8.200;2023-02-13T03:15:25;102354.28;;;3.82;87.08
7200;BME280;3641;49.082;8.200;2023-02-13T03:17:52;102351.25;;;3.72;88.68
7200;BME280;3641;49.082;8.200;2023-02-13T03:20:42;102360.22;;;3.73;88.94
7200;BME280;3641;49.082;8.200;2023-02-13T03:23:34;102367.56;;;3.71;88.16
7200;BME280;3641;49.082;8.200;2023-02-13T03:26:21;102361.38;;;3.69;90.17
7200;BME280;3641;49.082;8.200;2023-02-13T03:29:13;102362.56;;;3.79;88.12
7200;BME280;3641;49.082;8.200;2023-02-13T03:32:10;102368.25;;;3.74;89.64
7200;BME280;3641;49.082;8.200;2023-02-13T03:34:40;102372.97;;;3.71;89.79
7200;BME280;3641;49.082;8.200;2023-02-13T03:37:38;102374.69;;;3.72;88.85
7200;BME280;3641;49.082;8.200;2023-02-13T03:40:27;102378.94;;;3.76;88.37
7200;BME280;3641;49.082;8.200;2023-02-13T03:43:02;102387.75;;;3.79;89.78
7200;BME280;3641;49.082;8.200;2023-02-13T03:45:31;102383.44;;;3.61;92.26
7200;BME280;3641;49.082;8.200;2023-02-13T03:48:20;102396.19;;;3.73;89.30
7200;BME280;3641;49.082;8.200;2023-02-13T03:51:06;102393.88;;;3.67;90.85
7200;BME280;3641;49.082;8.200;2023-02-13T03:53:37;102394.94;;;3.49;92.59
7200;BME280;3641;49.082;8.200;2023-02-13T03:56:05;102395.50;;;3.70;89.41
7200;BME280;3641;49.082;8.200;2023-02-13T03:58:53;102398.31;;;3.68;92.21
7200;BME280;3641;49.082;8.200;2023-02-13T04:01:38;102396.91;;;3.77;90.01
7200;BME280;3641;49.082;8.200;2023-02-13T04:04:08;102399.94;;;3.87;87.74
7200;BME280;3641;49.082;8.200;2023-02-13T04:06:38;102401.81;;;3.70;91.54
7200;BME280;3641;49.082;8.200;2023-02-13T04:09:10;102393.16;;;3.63;92.80
7200;BME280;3641;49.082;8.200;2023-02-13T04:11:40;102397.97;;;3.58;93.03
7200;BME280;3641;49.082;8.200;2023-02-13T04:14:15;102399.72;;;3.59;93.01
7200;BME280;3641;49.082;8.200;2023-02-13T04:16:45;102397.28;;;3.71;90.19
7200;BME280;3641;49.082;8.200;2023-02-13T04:19:14;102402.13;;;3.80;90.01
7200;BME280;3641;49.082;8.200;2023-02-13T04:21:41;102396.72;;;3.80;89.04
7200;BME280;3641;49.082;8.200;2023-02-13T04:24:09;102396.66;;;3.81;89.83
7200;BME280;3641;49.082;8.200;2023-02-13T04:26:37;102407.28;;;3.85;88.74
7200;BME280;3641;49.082;8.200;2023-02-13T04:29:04;102400.84;;;3.71;90.72
7200;BME280;3641;49.082;8.200;2023-02-13T04:31:31;102407.38;;;3.67;92.55
7200;BME280;3641;49.082;8.200;2023-02-13T04:33:57;102407.81;;;3.75;90.28
7200;BME280;3641;49.082;8.200;2023-02-13T04:36:24;102400.56;;;3.76;90.18
7200;BME280;3641;49.082;8.200;2023-02-13T04:38:51;102396.56;;;3.83;89.10
7200;BME280;3641;49.082;8.200;2023-02-13T04:41:19;102392.78;;;3.86;87.75
7200;BME280;3641;49.082;8.200;2023-02-13T04:43:45;102392.47;;;3.76;90.28
7200;BME280;3641;49.082;8.200;2023-02-13T04:46:11;102391.63;;;3.59;92.06
7200;BME280;3641;49.082;8.200;2023-02-13T04:48:38;102384.72;;;3.70;90.79
7200;BME280;3641;49.082;8.200;2023-02-13T04:51:05;102388.47;;;3.67;91.14
7200;BME280;3641;49.082;8.200;2023-02-13T04:53:31;102379.94;;;3.59;92.49
7200;BME280;3641;49.082;8.200;2023-02-13T04:55:58;102385.41;;;3.73;89.78
7200;BME280;3641;49.082;8.200;2023-02-13T04:58:26;102381.06;;;3.71;91.53
7200;BME280;3641;49.082;8.200;2023-02-13T05:00:52;102385.06;;;3.63;90.77
7200;BME280;3641;49.082;8.200;2023-02-13T05:03:18;102380.56;;;3.64;90.30
7200;BME280;3641;49.082;8.200;2023-02-13T05:05:45;102387.41;;;3.70;89.58
7200;BME280;3641;49.082;8.200;2023-02-13T05:08:11;102393.78;;;3.69;90.51
7200;BME280;3641;49.082;8.200;2023-02-13T05:10:38;102382.63;;;3.59;90.79
7200;BME280;3641;49.082;8.200;2023-02-13T05:13:04;102387.50;;;3.68;89.16
7200;BME280;3641;49.082;8.200;2023-02-13T05:15:32;102380.22;;;3.70;89.15
7200;BME280;3641;49.082;8.200;2023-02-13T05:17:59;102382.38;;;3.63;89.79
7200;BME280;3641;49.082;8.200;2023-02-13T05:20:26;102384.47;;;3.58;91.18
7200;BME280;3641;49.082;8.200;2023-02-13T05:22:53;102378.72;;;3.64;89.68
7200;BME280;3641;49.082;8.200;2023-02-13T05:25:39;102374.88;;;3.69;88.89
7200;BME280;3641;49.082;8.200;2023-02-13T05:28:06;102374.34;;;3.62;89.89
7200;BME280;3641;49.082;8.200;2023-02-13T05:30:55;102369.44;;;3.54;91.38
7200;BME280;3641;49.082;8.200;2023-02-13T05:33:21;102377.16;;;3.60;90.20
7200;BME280;3641;49.082;8.200;2023-02-13T05:35:48;102374.38;;;3.46;92.45
7200;BME280;3641;49.082;8.200;2023-02-13T05:38:14;102381.44;;;3.49;92.60
7200;BME280;3641;49.082;8.200;2023-02-13T05:40:41;102377.91;;;3.16;94.92
7200;BME280;3641;49.082;8.200;2023-02-13T05:43:07;102389.28;;;3.37;94.04
7200;BME280;3641;49.082;8.200;2023-02-13T05:45:34;102379.69;;;3.32;94.12
7200;BME280;3641;49.082;8.200;2023-02-13T05:48:02;102386.22;;;3.59;90.29
7200;BME280;3641;49.082;8.200;2023-02-13T05:50:28;102384.31;;;3.45;92.41
7200;BME280;3641;49.082;8.200;2023-02-13T05:52:55;102383.19;;;3.50;91.89
7200;BME280;3641;49.082;8.200;2023-02-13T05:55:21;102384.38;;;3.60;89.65
7200;BME280;3641;49.082;8.200;2023-02-13T05:57:48;102378.22;;;3.58;89.41
7200;BME280;3641;49.082;8.200;2023-02-13T06:00:15;102381.94;;;3.55;90.26
7200;BME280;3641;49.082;8.200;2023-02-13T06:02:42;102386.13;;;3.61;88.69
7200;BME280;3641;49.082;8.200;2023-02-13T06:05:09;102387.78;;;3.63;89.32
7200;BME280;3641;49.082;8.200;2023-02-13T06:07:36;102384.75;;;3.54;91.92
7200;BME280;3641;49.082;8.200;2023-02-13T06:10:02;102388.78;;;3.31;93.74
7200;BME280;3641;49.082;8.200;2023-02-13T06:12:29;102385.91;;;3.34;94.23
7200;BME280;3641;49.082;8.200;2023-02-13T06:14:55;102385.28;;;3.13;95.51
7200;BME280;3641;49.082;8.200;2023-02-13T06:17:22;102389.47;;;3.34;93.04
7200;BME280;3641;49.082;8.200;2023-02-13T06:19:48;102381.97;;;3.23;94.65
7200;BME280;3641;49.082;8.200;2023-02-13T06:22:16;102383.81;;;3.23;95.29
7200;BME280;3641;49.082;8.200;2023-02-13T06:24:42;102379.94;;;3.43;92.59
7200;BME280;3641;49.082;8.200;2023-02-13T06:27:09;102388.25;;;3.24;94.35
7200;BME280;3641;49.082;8.200;2023-02-13T06:29:35;102380.59;;;3.32;93.65
7200;BME280;3641;49.082;8.200;2023-02-13T06:32:02;102379.00;;;3.28;94.08
7200;BME280;3641;49.082;8.200;2023-02-13T06:34:28;102383.81;;;3.39;92.08
7200;BME280;3641;49.082;8.200;2023-02-13T06:36:55;102389.28;;;3.37;92.18
7200;BME280;3641;49.082;8.200;2023-02-13T06:39:23;102390.59;;;3.30;94.11
7200;BME280;3641;49.082;8.200;2023-02-13T06:41:49;102393.00;;;3.51;89.44
7200;BME280;3641;49.082;8.200;2023-02-13T06:44:16;102390.97;;;3.08;94.89
7200;BME280;3641;49.082;8.200;2023-02-13T06:46:42;102393.03;;;3.19;94.92
7200;BME280;3641;49.082;8.200;2023-02-13T06:49:09;102397.66;;;3.17;94.78
7200;BME280;3641;49.082;8.200;2023-02-13T06:51:35;102401.94;;;3.37;91.64
7200;BME280;3641;49.082;8.200;2023-02-13T06:54:02;102404.00;;;3.32;92.53
7200;BME280;3641;49.082;8.200;2023-02-13T06:56:29;102401.28;;;3.32;93.51
7200;BME280;3641;49.082;8.200;2023-02-13T06:58:57;102404.16;;;3.28;94.28
7200;BME280;3641;49.082;8.200;2023-02-13T07:01:23;102398.25;;;3.22;94.14
7200;BME280;3641;49.082;8.200;2023-02-13T07:03:50;102403.81;;;3.03;95.52
7200;BME280;3641;49.082;8.200;2023-02-13T07:06:17;102404.63;;;3.37;92.66
7200;BME280;3641;49.082;8.200;2023-02-13T07:08:44;102410.13;;;3.35;92.52
7200;BME280;3641;49.082;8.200;2023-02-13T07:11:16;102406.25;;;3.23;93.56
7200;BME280;3641;49.082;8.200;2023-02-13T07:13:44;102401.63;;;3.25;93.96
7200;BME280;3641;49.082;8.200;2023-02-13T07:16:10;102406.19;;;3.25;94.13
7200;BME280;3641;49.082;8.200;2023-02-13T07:18:37;102411.41;;;3.28;93.98
7200;BME280;3641;49.082;8.200;2023-02-13T07:21:03;102405.75;;;3.33;91.45
7200;BME280;3641;49.082;8.200;2023-02-13T07:23:30;102413.25;;;3.43;90.88
7200;BME280;3641;49.082;8.200;2023-02-13T07:25:58;102420.53;;;3.25;93.70
7200;BME280;3641;49.082;8.200;2023-02-13T07:28:25;102416.19;;;3.23;93.67
7200;BME280;3641;49.082;8.200;2023-02-13T07:30:53;102419.91;;;3.04;94.80
7200;BME280;3641;49.082;8.200;2023-02-13T07:33:19;102421.44;;;3.26;93.00
7200;BME280;3641;49.082;8.200;2023-02-13T07:35:47;102428.84;;;3.38;92.41
7200;BME280;3641;49.082;8.200;2023-02-13T07:38:14;102427.84;;;3.23;93.78
7200;BME280;3641;49.082;8.200;2023-02-13T07:40:40;102420.72;;;3.06;95.34
7200;BME280;3641;49.082;8.200;2023-02-13T07:43:07;102428.47;;;3.28;92.90
7200;BME280;3641;49.082;8.200;2023-02-13T07:45:33;102429.63;;;3.40;90.57
7200;BME280;3641;49.082;8.200;2023-02-13T07:48:01;102430.13;;;3.31;92.37
7200;BME280;3641;49.082;8.200;2023-02-13T07:50:28;102431.78;;;3.18;93.99
7200;BME280;3641;49.082;8.200;2023-02-13T07:52:55;102434.41;;;3.35;91.98
7200;BME280;3641;49.082;8.200;2023-02-13T07:55:22;102433.34;;;3.22;93.03
7200;BME280;3641;49.082;8.200;2023-02-13T07:57:49;102433.94;;;3.43;89.86
7200;BME280;3641;49.082;8.200;2023-02-13T08:00:16;102432.06;;;3.45;89.83
7200;BME280;3641;49.082;8.200;2023-02-13T08:02:43;102431.88;;;3.48;89.79
7200;BME280;3641;49.082;8.200;2023-02-13T08:05:11;102426.22;;;3.53;89.06
7200;BME280;3641;49.082;8.200;2023-02-13T08:07:38;102431.97;;;3.47;90.18
7200;BME280;3641;49.082;8.200;2023-02-13T08:10:06;102429.69;;;3.55;88.92
7200;BME280;3641;49.082;8.200;2023-02-13T08:12:51;102430.13;;;3.47;90.24
7200;BME280;3641;49.082;8.200;2023-02-13T08:15:18;102433.59;;;3.49;90.51
7200;BME280;3641;49.082;8.200;2023-02-13T08:17:44;102435.59;;;3.61;88.40
7200;BME280;3641;49.082;8.200;2023-02-13T08:20:12;102443.88;;;3.58;89.31
7200;BME280;3641;49.082;8.200;2023-02-13T08:22:39;102432.47;;;3.53;90.39
7200;BME280;3641;49.082;8.200;2023-02-13T08:25:06;102433.78;;;3.46;91.24
7200;BME280;3641;49.082;8.200;2023-02-13T08:27:32;102437.63;;;3.42;92.97
7200;BME280;3641;49.082;8.200;2023-02-13T08:29:59;102434.22;;;3.54;90.79
7200;BME280;3641;49.082;8.200;2023-02-13T08:32:27;102434.75;;;3.29;93.80
7200;BME280;3641;49.082;8.200;2023-02-13T08:34:54;102435.09;;;3.23;94.54
7200;BME280;3641;49.082;8.200;2023-02-13T08:37:23;102428.63;;;3.25;95.26
7200;BME280;3641;49.082;8.200;2023-02-13T08:39:49;102430.03;;;3.49;91.45
7200;BME280;3641;49.082;8.200;2023-02-13T08:42:16;102429.94;;;3.50;91.44
7200;BME280;3641;49.082;8.200;2023-02-13T08:44:42;102424.97;;;3.58;90.84
7200;BME280;3641;49.082;8.200;2023-02-13T08:47:09;102423.34;;;3.56;91.72
7200;BME280;3641;49.082;8.200;2023-02-13T08:49:35;102429.78;;;3.69;89.80
7200;BME280;3641;49.082;8.200;2023-02-13T08:52:02;102421.81;;;3.82;88.91
7200;BME280;3641;49.082;8.200;2023-02-13T08:54:32;102432.13;;;3.75;89.63
7200;BME280;3641;49.082;8.200;2023-02-13T08:56:59;102428.81;;;3.70;90.05
7200;BME280;3641;49.082;8.200;2023-02-13T08:59:25;102430.44;;;3.73;89.42
7200;BME280;3641;49.082;8.200;2023-02-13T09:01:52;102434.41;;;3.67;89.67
7200;BME280;3641;49.082;8.200;2023-02-13T09:04:18;102433.69;;;3.63;89.97
7200;BME280;3641;49.082;8.200;2023-02-13T09:06:45;102424.38;;;3.69;89.88
7200;BME280;3641;49.082;8.200;2023-02-13T09:09:11;102427.66;;;3.74;90.15
7200;BME280;3641;49.082;8.200;2023-02-13T09:11:39;102431.31;;;3.73;89.82
7200;BME280;3641;49.082;8.200;2023-02-13T09:14:05;102427.72;;;3.89;88.80
7200;BME280;3641;49.082;8.200;2023-02-13T09:16:32;102435.81;;;3.89;88.98
7200;BME280;3641;49.082;8.200;2023-02-13T09:18:58;102436.41;;;3.94;88.44
7200;BME280;3641;49.082;8.200;2023-02-13T09:21:25;102431.19;;;3.91;88.59
7200;BME280;3641;49.082;8.200;2023-02-13T09:23:51;102433.13;;;3.89;89.77
7200;BME280;3641;49.082;8.200;2023-02-13T09:26:19;102441.16;;;3.90;89.18
7200;BME280;3641;49.082;8.200;2023-02-13T09:28:47;102440.38;;;3.88;89.57
7200;BME280;3641;49.082;8.200;2023-02-13T09:31:15;102446.09;;;3.98;88.99
7200;BME280;3641;49.082;8.200;2023-02-13T09:33:42;102445.28;;;3.66;91.31
7200;BME280;3641;49.082;8.200;2023-02-13T09:36:10;102447.78;;;3.85;90.41
7200;BME280;3641;49.082;8.200;2023-02-13T09:38:38;102449.03;;;3.63;92.66
7200;BME280;3641;49.082;8.200;2023-02-13T09:41:09;102451.78;;;3.77;91.40
7200;BME280;3641;49.082;8.200;2023-02-13T09:43:41;102446.41;;;3.77;91.13
7200;BME280;3641;49.082;8.200;2023-02-13T09:46:14;102442.03;;;3.75;91.40
7200;BME280;3641;49.082;8.200;2023-02-13T09:48:44;102446.47;;;3.76;92.10
7200;BME280;3641;49.082;8.200;2023-02-13T09:51:13;102450.47;;;4.00;89.17
7200;BME280;3641;49.082;8.200;2023-02-13T09:53:51;102447.22;;;3.94;89.57
7200;BME280;3641;49.082;8.200;2023-02-13T09:56:22;102452.81;;;3.91;89.66
7200;BME280;3641;49.082;8.200;2023-02-13T09:58:58;102449.75;;;3.97;90.22
7200;BME280;3641;49.082;8.200;2023-02-13T10:01:30;102455.13;;;4.13;88.71
7200;BME280;3641;49.082;8.200;2023-02-13T10:04:20;102459.91;;;4.24;87.42
7200;BME280;3641;49.082;8.200;2023-02-13T10:06:56;102456.88;;;4.14;89.85
7200;BME280;3641;49.082;8.200;2023-02-13T10:09:29;102463.22;;;4.13;89.78
7200;BME280;3641;49.082;8.200;2023-02-13T10:12:15;102456.88;;;4.14;90.34
7200;BME280;3641;49.082;8.200;2023-02-13T10:14:52;102459.63;;;4.28;89.47
7200;BME280;3641;49.082;8.200;2023-02-13T10:17:26;102456.47;;;4.36;88.19
7200;BME280;3641;49.082;8.200;2023-02-13T10:19:56;102454.72;;;4.35;89.06
7200;BME280;3641;49.082;8.200;2023-02-13T10:22:28;102455.34;;;4.24;90.77
7200;BME280;3641;49.082;8.200;2023-02-13T10:24:59;102458.59;;;4.31;89.16
7200;BME280;3641;49.082;8.200;2023-02-13T10:27:32;102462.31;;;4.28;89.82
7200;BME280;3641;49.082;8.200;2023-02-13T10:30:02;102460.88;;;4.37;89.06
7200;BME280;3641;49.082;8.200;2023-02-13T10:32:37;102465.47;;;4.51;88.20
7200;BME280;3641;49.082;8.200;2023-02-13T10:35:17;102462.47;;;4.55;88.38
7200;BME280;3641;49.082;8.200;2023-02-13T10:37:44;102466.78;;;4.74;86.91
7200;BME280;3641;49.082;8.200;2023-02-13T10:40:15;102464.34;;;4.55;88.79
7200;BME280;3641;49.082;8.200;2023-02-13T10:42:44;102456.91;;;4.73;86.97
7200;BME280;3641;49.082;8.200;2023-02-13T10:45:40;102466.13;;;4.54;89.25
7200;BME280;3641;49.082;8.200;2023-02-13T10:48:31;102456.69;;;4.62;89.15
7200;BME280;3641;49.082;8.200;2023-02-13T10:51:03;102455.66;;;4.64;88.60
7200;BME280;3641;49.082;8.200;2023-02-13T10:53:49;102443.47;;;4.86;86.75
7200;BME280;3641;49.082;8.200;2023-02-13T10:56:24;102444.84;;;5.07;85.41
7200;BME280;3641;49.082;8.200;2023-02-13T10:59:02;102448.22;;;5.11;86.26
7200;BME280;3641;49.082;8.200;2023-02-13T11:01:35;102443.28;;;5.18;85.60
7200;BME280;3641;49.082;8.200;2023-02-13T11:04:09;102434.47;;;5.28;85.43
7200;BME280;3641;49.082;8.200;2023-02-13T11:06:37;102434.28;;;5.32;85.41
7200;BME280;3641;49.082;8.200;2023-02-13T11:09:07;102430.03;;;5.13;86.48
7200;BME280;3641;49.082;8.200;2023-02-13T11:11:40;102424.69;;;5.26;86.05
7200;BME280;3641;49.082;8.200;2023-02-13T11:14:11;102425.34;;;5.30;86.07
7200;BME280;3641;49.082;8.200;2023-02-13T11:16:42;102422.63;;;5.44;85.42
7200;BME280;3641;49.082;8.200;2023-02-13T11:19:18;102414.28;;;5.47;85.19
7200;BME280;3641;49.082;8.200;2023-02-13T11:21:46;102417.94;;;5.60;84.46
7200;BME280;3641;49.082;8.200;2023-02-13T11:24:18;102415.47;;;5.43;85.60
7200;BME280;3641;49.082;8.200;2023-02-13T11:26:50;102414.28;;;5.47;86.15
7200;BME280;3641;49.082;8.200;2023-02-13T11:29:22;102406.72;;;5.67;85.16
7200;BME280;3641;49.082;8.200;2023-02-13T11:32:00;102410.03;;;5.85;84.37
7200;BME280;3641;49.082;8.200;2023-02-13T11:34:31;102410.53;;;5.77;84.33
7200;BME280;3641;49.082;8.200;2023-02-13T11:37:14;102411.97;;;5.82;84.56
7200;BME280;3641;49.082;8.200;2023-02-13T11:39:43;102407.25;;;5.72;85.01
7200;BME280;3641;49.082;8.200;2023-02-13T11:42:12;102405.09;;;5.77;85.46
7200;BME280;3641;49.082;8.200;2023-02-13T11:44:41;102400.69;;;6.03;84.19
7200;BME280;3641;49.082;8.200;2023-02-13T11:47:08;102397.19;;;6.01;84.72
7200;BME280;3641;49.082;8.200;2023-02-13T11:49:37;102394.91;;;6.08;84.09
7200;BME280;3641;49.082;8.200;2023-02-13T11:52:05;102389.19;;;6.12;83.91
7200;BME280;3641;49.082;8.200;2023-02-13T11:54:34;102389.06;;;6.14;83.84
7200;BME280;3641;49.082;8.200;2023-02-13T11:57:08;102385.28;;;6.16;84.08
7200;BME280;3641;49.082;8.200;2023-02-13T11:59:43;102388.97;;;6.15;84.82
7200;BME280;3641;49.082;8.200;2023-02-13T12:02:17;102383.78;;;6.25;83.37
7200;BME280;3641;49.082;8.200;2023-02-13T12:04:46;102388.44;;;6.23;83.67
7200;BME280;3641;49.082;8.200;2023-02-13T12:07:16;102379.56;;;6.47;83.92
7200;BME280;3641;49.082;8.200;2023-02-13T12:09:46;102381.41;;;6.59;83.10
7200;BME280;3641;49.082;8.200;2023-02-13T12:12:18;102374.78;;;6.63;83.18
7200;BME280;3641;49.082;8.200;2023-02-13T12:14:48;102378.91;;;6.69;83.36
7200;BME280;3641;49.082;8.200;2023-02-13T12:17:17;102376.31;;;6.67;82.97
7200;BME280;3641;49.082;8.200;2023-02-13T12:19:48;102370.88;;;6.80;82.59
7200;BME280;3641;49.082;8.200;2023-02-13T12:22:28;102383.91;;;6.75;82.66
7200;BME280;3641;49.082;8.200;2023-02-13T12:25:18;102371.06;;;6.90;83.00
7200;BME280;3641;49.082;8.200;2023-02-13T12:27:59;102370.72;;;6.95;82.34
7200;BME280;3641;49.082;8.200;2023-02-13T12:30:47;102371.78;;;7.05;82.30
7200;BME280;3641;49.082;8.200;2023-02-13T12:33:27;102377.09;;;7.06;82.66
7200;BME280;3641;49.082;8.200;2023-02-13T12:36:01;102373.41;;;7.07;83.44
7200;BME280;3641;49.082;8.200;2023-02-13T12:38:44;102373.19;;;7.11;83.30
7200;BME280;3641;49.082;8.200;2023-02-13T12:41:18;102367.34;;;7.04;82.37
7200;BME280;3641;49.082;8.200;2023-02-13T12:46:53;102360.84;;;6.94;84.14
7200;BME280;3641;49.082;8.200;2023-02-13T12:49:53;102353.84;;;7.15;82.59
7200;BME280;3641;49.082;8.200;2023-02-13T12:52:45;102354.19;;;7.11;82.59
7200;BME280;3641;49.082;8.200;2023-02-13T12:55:23;102350.78;;;7.20;82.22
7200;BME280;3641;49.082;8.200;2023-02-13T12:58:01;102344.31;;;7.34;82.23
7200;BME280;3641;49.082;8.200;2023-02-13T13:00:40;102339.53;;;7.37;82.57
7200;BME280;3641;49.082;8.200;2023-02-13T13:03:24;102336.81;;;7.37;81.97
7200;BME280;3641;49.082;8.200;2023-02-13T13:06:12;102335.59;;;7.41;81.93
7200;BME280;3641;49.082;8.200;2023-02-13T13:12:08;102339.59;;;7.49;81.72
7200;BME280;3641;49.082;8.200;2023-02-13T13:14:43;102343.44;;;7.57;81.94
7200;BME280;3641;49.082;8.200;2023-02-13T13:17:22;102339.28;;;7.64;82.09
7200;BME280;3641;49.082;8.200;2023-02-13T13:19:57;102334.72;;;7.65;81.84
7200;BME280;3641;49.082;8.200;2023-02-13T13:22:31;102335.47;;;7.67;81.38
7200;BME280;3641;49.082;8.200;2023-02-13T13:25:04;102342.53;;;7.70;81.44
7200;BME280;3641;49.082;8.200;2023-02-13T13:27:41;102331.09;;;7.89;80.16
7200;BME280;3641;49.082;8.200;2023-02-13T13:30:15;102327.19;;;8.04;79.33
7200;BME280;3641;49.082;8.200;2023-02-13T13:32:44;102324.63;;;8.25;79.62
7200;BME280;3641;49.082;8.200;2023-02-13T13:35:14;102324.81;;;8.46;80.69
7200;BME280;3641;49.082;8.200;2023-02-13T13:37:47;102313.94;;;8.58;81.62
7200;BME280;3641;49.082;8.200;2023-02-13T13:40:34;102327.16;;;8.51;79.04
7200;BME280;3641;49.082;8.200;2023-02-13T13:43:11;102319.88;;;8.51;78.98
7200;BME280;3641;49.082;8.200;2023-02-13T13:45:44;102321.97;;;8.48;80.00
7200;BME280;3641;49.082;8.200;2023-02-13T13:48:32;102321.97;;;8.48;81.01
7200;BME280;3641;49.082;8.200;2023-02-13T13:51:04;102313.28;;;8.43;79.54
7200;BME280;3641;49.082;8.200;2023-02-13T13:53:31;102310.56;;;8.43;80.97